Time;durP1;ratioP1;P1;durP2;ratioP2;P2;SDS_P1;SDS_P2;PMS_P1;PMS_P2;Temp;Humidity;BMP_temperature;BMP_pressure;BME280_temperature;BME280_humidity;BME280_pressure;Samples;Min_cycle;Max_cycle;Signal;HPM_P1;HPM_P2
2024/04/12 00:00:57;;;;;;;;;;;;;;;11.47;100.00;101638.13;5497691;26;19938;-84
2024/04/12 00:03:23;;;;;;;;;;;;;;;11.43;100.00;101638.47;5495668;26;20334;-84
2024/04/12 00:05:48;;;;;;;;;;;;;;;11.44;100.00;101644.69;5495169;26;19934;-85
2024/04/12 00:08:15;;;;;;;;;;;;;;;11.43;100.00;101651.94;5495198;26;19934;-85
2024/04/12 00:10:41;;;;;;;;;;;;;;;11.42;100.00;101647.53;5495234;26;19928;-84
2024/04/12 00:13:07;;;;;;;;;;;;;;;11.43;100.00;101642.97;5495064;26;19927;-83
2024/04/12 00:15:33;;;;;;;;;;;;;;;11.41;100.00;101647.69;5496087;26;19927;-83
2024/04/12 00:17:59;;;;;;;;;;;;;;;11.39;100.00;101645.16;5495352;26;19939;-84
2024/04/12 00:20:28;;;;;;;;;;;;;;;11.38;100.00;101642.66;5526138;26;19994;-84
2024/04/12 00:22:55;;;;;;;;;;;;;;;11.40;100.00;101646.84;5495759;26;19939;-84
2024/04/12 00:25:23;;;;;;;;;;;;;;;11.40;100.00;101646.84;5526093;26;19955;-84
2024/04/12 00:27:49;;;;;;;;;;;;;;;11.40;100.00;101648.69;5525950;26;19928;-83
2024/04/12 00:30:37;;;;;;;;;;;;;;;11.39;100.00;101647.00;5495035;26;20277;-84
2024/04/12 00:33:00;;;;;;;;;;;;;;;11.37;100.00;101655.22;5526198;26;19928;-83
2024/04/12 00:35:34;;;;;;;;;;;;;;;11.35;100.00;101667.16;5464462;26;19934;-83
2024/04/12 00:38:03;;;;;;;;;;;;;;;11.33;100.00;101667.34;5497106;26;19928;-83
2024/04/12 00:40:33;;;;;;;;;;;;;;;11.32;100.00;101660.25;5494880;26;19995;-83
2024/04/12 00:43:11;;;;;;;;;;;;;;;11.32;100.00;101648.66;5465362;26;19935;-83
2024/04/12 00:45:41;;;;;;;;;;;;;;;11.30;100.00;101659.59;5495256;26;19928;-84
2024/04/12 00:48:07;;;;;;;;;;;;;;;11.28;100.00;101656.19;5525265;26;19943;-84
2024/04/12 00:50:36;;;;;;;;;;;;;;;11.26;100.00;101652.81;5464503;26;19938;-83
2024/04/12 00:53:03;;;;;;;;;;;;;;;11.26;100.00;101655.50;5494699;26;19928;-84
2024/04/12 00:55:32;;;;;;;;;;;;;;;11.24;100.00;101654.81;5525004;26;19928;-84
2024/04/12 00:57:59;;;;;;;;;;;;;;;11.23;100.00;101658.53;5495203;26;19995;-84
2024/04/12 01:00:35;;;;;;;;;;;;;;;11.22;100.00;101667.63;5464366;26;19939;-83
2024/04/12 01:03:05;;;;;;;;;;;;;;;11.19;100.00;101658.00;5466563;26;19953;-84
2024/04/12 01:05:33;;;;;;;;;;;;;;;11.17;100.00;101654.63;5494160;26;19928;-84
2024/04/12 01:08:00;;;;;;;;;;;;;;;11.16;100.00;101657.47;5494759;26;19959;-83
2024/04/12 01:10:25;;;;;;;;;;;;;;;11.14;100.00;101654.94;5528771;26;19959;-83
2024/04/12 01:12:55;;;;;;;;;;;;;;;11.15;100.00;101659.31;5497767;26;19927;-84
2024/04/12 01:15:23;;;;;;;;;;;;;;;11.14;100.00;101659.44;5467320;26;19996;-83
2024/04/12 01:17:49;;;;;;;;;;;;;;;11.14;100.00;101665.72;5467323;26;19996;-84
2024/04/12 01:20:16;;;;;;;;;;;;;;;11.16;100.00;101673.59;5528500;26;19936;-83
2024/04/12 01:22:44;;;;;;;;;;;;;;;11.14;100.00;101662.16;5497908;26;19995;-83
2024/04/12 01:25:10;;;;;;;;;;;;;;;11.13;100.00;101657.78;5468224;26;19927;-84
2024/04/12 01:27:39;;;;;;;;;;;;;;;11.10;100.00;101653.56;5467368;26;19940;-83
2024/04/12 01:30:08;;;;;;;;;;;;;;;11.08;100.00;101644.78;5528150;26;19928;-83
2024/04/12 01:32:33;;;;;;;;;;;;;;;11.06;100.00;101644.13;5497855;26;19935;-84
2024/04/12 01:35:03;;;;;;;;;;;;;;;11.09;100.00;101632.19;5497471;26;19996;-83
2024/04/12 01:37:31;;;;;;;;;;;;;;;11.12;100.00;101630.03;5528375;26;19954;-83
2024/04/12 01:40:03;;;;;;;;;;;;;;;11.14;100.00;101628.03;5497405;26;19931;-84
2024/04/12 01:42:30;;;;;;;;;;;;;;;11.13;100.00;101622.78;5500573;26;19927;-83
2024/04/12 01:45:29;;;;;;;;;;;;;;;11.12;100.00;101619.25;5553182;25;19934;-82
2024/04/12 01:47:48;;;;;;;;;;;;;;;11.11;100.00;101624.78;5538601;26;19934;-83
2024/04/12 01:50:21;;;;;;;;;;;;;;;11.10;100.00;101621.25;5466996;26;19927;-83
2024/04/12 01:52:50;;;;;;;;;;;;;;;11.14;100.00;101624.47;5499861;26;19939;-84
2024/04/12 01:55:18;;;;;;;;;;;;;;;11.12;100.00;101618.41;5528457;26;19935;-83
2024/04/12 01:57:46;;;;;;;;;;;;;;;11.12;100.00;101626.50;5497547;26;20349;-83
2024/04/12 02:00:16;;;;;;;;;;;;;;;11.14;100.00;101624.47;5528243;26;19935;-83
2024/04/12 02:02:42;;;;;;;;;;;;;;;11.14;100.00;101627.16;5497129;26;19934;-84
2024/04/12 02:05:09;;;;;;;;;;;;;;;11.16;100.00;101627.84;5528172;26;19928;-84
2024/04/12 02:07:39;;;;;;;;;;;;;;;11.15;100.00;101624.31;5497264;26;20013;-83
2024/04/12 02:10:11;;;;;;;;;;;;;;;11.13;100.00;101628.16;5467709;26;19934;-83
2024/04/12 02:12:40;;;;;;;;;;;;;;;11.15;100.00;101631.56;5528017;26;20033;-83
2024/04/12 02:15:19;;;;;;;;;;;;;;;11.19;100.00;101631.09;5467442;26;20331;-84
2024/04/12 02:17:53;;;;;;;;;;;;;;;11.18;100.00;101624.00;5497361;26;19930;-86
2024/04/12 02:20:20;;;;;;;;;;;;;;;11.19;100.00;101624.84;5497436;26;19928;-84
2024/04/12 02:22:46;;;;;;;;;;;;;;;11.20;100.00;101631.94;5466479;26;20362;-83
2024/04/12 02:25:13;;;;;;;;;;;;;;;11.23;100.00;101623.53;5466333;26;19960;-84
2024/04/12 02:27:38;;;;;;;;;;;;;;;11.24;100.00;101611.75;5527834;26;19928;-83
2024/04/12 02:30:06;;;;;;;;;;;;;;;11.22;100.00;101606.53;5496513;26;19972;-84
2024/04/12 02:32:31;;;;;;;;;;;;;;;11.24;100.00;101606.34;5466977;26;20006;-84
2024/04/12 02:34:57;;;;;;;;;;;;;;;11.26;100.00;101593.59;5466312;26;20358;-84
2024/04/12 02:37:22;;;;;;;;;;;;;;;11.24;100.00;101600.97;5496537;26;19927;-84
2024/04/12 02:39:48;;;;;;;;;;;;;;;11.25;100.00;101601.84;5496488;26;19995;-84
2024/04/12 02:42:18;;;;;;;;;;;;;;;11.22;100.00;101592.25;5496518;26;20076;-85
2024/04/12 02:44:45;;;;;;;;;;;;;;;11.19;100.00;101587.16;5527722;26;19928;-84
2024/04/12 02:47:14;;;;;;;;;;;;;;;11.17;100.00;101586.47;5466561;26;20062;-84
2024/04/12 02:49:40;;;;;;;;;;;;;;;11.14;100.00;101590.34;5527193;26;20374;-84
2024/04/12 02:52:07;;;;;;;;;;;;;;;11.11;100.00;101589.78;5527114;26;20003;-84
2024/04/12 02:54:35;;;;;;;;;;;;;;;11.10;100.00;101604.25;5527077;26;19995;-84
2024/04/12 02:57:03;;;;;;;;;;;;;;;11.09;100.00;101614.19;5496743;26;19995;-84
2024/04/12 02:59:29;;;;;;;;;;;;;;;11.09;100.00;101616.03;5496904;26;19934;-84
2024/04/12 03:01:54;;;;;;;;;;;;;;;11.12;100.00;101599.56;5496728;26;19927;-85
2024/04/12 03:04:20;;;;;;;;;;;;;;;11.06;100.00;101602.88;5526981;26;19934;-84
2024/04/12 03:06:46;;;;;;;;;;;;;;;11.09;100.00;101607.97;5465854;26;19927;-84
2024/04/12 03:09:11;;;;;;;;;;;;;;;11.10;100.00;101617.72;5496275;26;19928;-84
2024/04/12 03:11:37;;;;;;;;;;;;;;;11.11;100.00;101612.16;5496272;26;19928;-84
2024/04/12 03:14:09;;;;;;;;;;;;;;;11.11;100.00;101606.78;5526841;26;19927;-84
2024/04/12 03:16:40;;;;;;;;;;;;;;;11.13;100.00;101622.78;5497675;26;19928;-84
2024/04/12 03:19:07;;;;;;;;;;;;;;;11.14;100.00;101616.38;5465920;26;19980;-84
2024/04/12 03:21:34;;;;;;;;;;;;;;;11.14;100.00;101611.00;5496659;26;19934;-84
2024/04/12 03:24:01;;;;;;;;;;;;;;;11.13;100.00;101601.25;5465814;26;19928;-85
2024/04/12 03:26:27;;;;;;;;;;;;;;;11.13;100.00;101594.00;5495800;26;19933;-84
2024/04/12 03:28:55;;;;;;;;;;;;;;;11.14;100.00;101600.25;5495936;26;20262;-84
2024/04/12 03:31:25;;;;;;;;;;;;;;;11.16;100.00;101595.53;5495413;26;19927;-84
2024/04/12 03:33:51;;;;;;;;;;;;;;;11.17;100.00;101602.63;5525886;26;19927;-84
2024/04/12 03:39:24;;;;;;;;;;;;;;;11.18;100.00;101590.84;5511836;26;20323;-84
2024/04/12 03:41:57;;;;;;;;;;;;;;;11.17;100.00;101592.72;5469511;26;19928;-84
2024/04/12 03:44:25;;;;;;;;;;;;;;;11.15;100.00;101580.41;5466026;26;19935;-85
2024/04/12 03:46:51;;;;;;;;;;;;;;;11.16;100.00;101574.84;5496344;26;19972;-84
2024/04/12 03:49:23;;;;;;;;;;;;;;;11.15;100.00;101570.47;5465428;26;19939;-84
2024/04/12 03:51:54;;;;;;;;;;;;;;;11.14;100.00;101578.69;5466200;26;19942;-84
2024/04/12 03:54:21;;;;;;;;;;;;;;;11.13;100.00;101579.72;5496429;26;19977;-84
2024/04/12 03:56:50;;;;;;;;;;;;;;;11.11;100.00;101585.25;5465373;26;19927;-84
2024/04/12 03:59:16;;;;;;;;;;;;;;;11.11;100.00;101571.78;5466086;26;20394;-85
2024/04/12 04:01:44;;;;;;;;;;;;;;;11.13;100.00;101577.03;5495659;26;19936;-84
2024/04/12 04:04:17;;;;;;;;;;;;;;;11.12;100.00;101572.66;5496571;26;20362;-84
2024/04/12 04:06:44;;;;;;;;;;;;;;;11.11;100.00;101573.66;5517788;25;19927;-83
2024/04/12 04:09:11;;;;;;;;;;;;;;;11.12;100.00;101576.19;5520691;25;19931;-84
2024/04/12 04:11:42;;;;;;;;;;;;;;;11.11;100.00;101570.94;5496131;26;19935;-84
2024/04/12 04:14:09;;;;;;;;;;;;;;;11.10;100.00;101571.97;5467227;26;19927;-86
2024/04/12 04:16:38;;;;;;;;;;;;;;;11.09;100.00;101571.13;5465248;26;19934;-84
2024/04/12 04:19:04;;;;;;;;;;;;;;;11.09;100.00;101572.97;5465799;26;19931;-85
2024/04/12 04:21:33;;;;;;;;;;;;;;;11.09;100.00;101556.84;5465228;26;19935;-84
2024/04/12 04:24:08;;;;;;;;;;;;;;;11.09;100.00;101560.38;5496228;26;19995;-84
2024/04/12 04:26:37;;;;;;;;;;;;;;;11.13;100.00;101558.19;5466479;26;19963;-84
2024/04/12 04:29:09;;;;;;;;;;;;;;;11.12;100.00;101569.97;5495041;26;19928;-84
2024/04/12 04:31:47;;;;;;;;;;;;;;;11.06;100.00;101566.06;5496367;26;19935;-84
2024/04/12 04:34:13;;;;;;;;;;;;;;;11.08;100.00;101563.19;5495063;26;20373;-84
2024/04/12 04:36:42;;;;;;;;;;;;;;;11.07;100.00;101558.84;5525952;26;19928;-84
2024/04/12 04:39:08;;;;;;;;;;;;;;;11.09;100.00;101559.53;5464624;26;19927;-84
2024/04/12 04:41:33;;;;;;;;;;;;;;;11.09;100.00;101554.97;5464889;26;19927;-84
2024/04/12 04:44:01;;;;;;;;;;;;;;;11.08;100.00;101550.59;5496700;26;19935;-85
2024/04/12 04:46:27;;;;;;;;;;;;;;;11.07;100.00;101545.38;5469220;26;19931;-85
2024/04/12 04:48:53;;;;;;;;;;;;;;;11.07;100.00;101553.44;5498372;26;20353;-85
2024/04/12 04:51:19;;;;;;;;;;;;;;;11.07;100.00;101538.16;5529229;26;19927;-85
2024/04/12 04:53:44;;;;;;;;;;;;;;;11.04;100.00;101525.00;5498527;26;19935;-85
2024/04/12 04:56:12;;;;;;;;;;;;;;;11.06;100.00;101532.91;5498744;26;19995;-84
2024/04/12 04:58:41;;;;;;;;;;;;;;;11.06;100.00;101535.59;5498348;26;20247;-85
2024/04/12 05:01:11;;;;;;;;;;;;;;;11.05;100.00;101545.53;5499144;26;19935;-84
2024/04/12 05:03:37;;;;;;;;;;;;;;;11.06;100.00;101546.38;5499613;26;19935;-84
2024/04/12 05:06:06;;;;;;;;;;;;;;;11.07;100.00;101551.59;5497890;26;19934;-84
2024/04/12 05:08:35;;;;;;;;;;;;;;;11.08;100.00;101549.75;5468615;26;20354;-84
2024/04/12 05:11:05;;;;;;;;;;;;;;;11.08;100.00;101552.44;5500624;26;19928;-84
2024/04/12 05:13:37;;;;;;;;;;;;;;;11.08;100.00;101539.81;5498653;26;20021;-85
2024/04/12 05:16:15;;;;;;;;;;;;;;;11.10;100.00;101547.75;5528924;26;19927;-85
2024/04/12 05:18:44;;;;;;;;;;;;;;;11.10;100.00;101535.13;5469806;26;19963;-85
2024/04/12 05:21:13;;;;;;;;;;;;;;;11.05;100.00;101542.00;5467967;26;19935;-85
2024/04/12 05:23:39;;;;;;;;;;;;;;;11.00;100.00;101529.84;5498781;26;19928;-85
2024/04/12 05:26:09;;;;;;;;;;;;;;;11.08;100.00;101514.75;5528538;26;19931;-85
2024/04/12 05:28:35;;;;;;;;;;;;;;;11.02;100.00;101523.47;5498485;26;19976;-85
2024/04/12 05:31:01;;;;;;;;;;;;;;;11.00;100.00;101543.31;5497958;26;19934;-85
2024/04/12 05:33:29;;;;;;;;;;;;;;;11.02;100.00;101539.63;5497545;26;19935;-86
2024/04/12 05:35:56;;;;;;;;;;;;;;;11.02;100.00;101539.63;5498245;26;19931;-85
2024/04/12 05:38:21;;;;;;;;;;;;;;;11.02;100.00;101539.63;5497553;26;20402;-85
2024/04/12 05:40:51;;;;;;;;;;;;;;;11.04;100.00;101541.16;5497688;26;19931;-85
2024/04/12 05:43:18;;;;;;;;;;;;;;;11.06;100.00;101532.91;5499284;26;20374;-85
2024/04/12 05:45:47;;;;;;;;;;;;;;;11.07;100.00;101518.47;5466662;26;20239;-84
2024/04/12 05:48:14;;;;;;;;;;;;;;;11.09;100.00;101521.84;5498345;26;19927;-85
2024/04/12 05:50:46;;;;;;;;;;;;;;;11.10;100.00;101523.53;5467153;26;19935;-84
2024/04/12 05:53:12;;;;;;;;;;;;;;;11.12;100.00;101527.75;5467686;26;19938;-85
2024/04/12 05:55:52;;;;;;;;;;;;;;;11.14;100.00;101525.75;5496195;26;20306;-84
2024/04/12 05:58:18;;;;;;;;;;;;;;;11.20;100.00;101530.47;5500258;26;19995;-85
2024/04/12 06:00:47;;;;;;;;;;;;;;;11.25;100.00;101530.00;5497259;26;19927;-85
2024/04/12 06:03:14;;;;;;;;;;;;;;;11.30;100.00;101537.56;5497960;26;19993;-85
2024/04/12 06:06:06;;;;;;;;;;;;;;;11.29;100.00;101528.66;5467186;26;19976;-86
2024/04/12 06:08:35;;;;;;;;;;;;;;;11.34;100.00;101531.69;5495181;26;20284;-85
2024/04/12 06:11:01;;;;;;;;;;;;;;;11.32;100.00;101538.25;5467288;26;19961;-84
2024/04/12 06:13:26;;;;;;;;;;;;;;;11.39;100.00;101539.31;5466536;26;20243;-85
2024/04/12 06:15:54;;;;;;;;;;;;;;;11.37;100.00;101536.75;5496824;26;20368;-85
2024/04/12 06:18:19;;;;;;;;;;;;;;;11.34;100.00;101536.25;5497315;26;20394;-84
2024/04/12 06:20:45;;;;;;;;;;;;;;;11.34;100.00;101531.69;5496757;26;19934;-85
2024/04/12 06:23:11;;;;;;;;;;;;;;;11.37;100.00;101539.44;5496912;26;20254;-87
2024/04/12 06:25:38;;;;;;;;;;;;;;;11.37;100.00;101544.84;5498088;26;20327;-86
2024/04/12 06:28:11;;;;;;;;;;;;;;;11.39;100.00;101544.69;5516568;25;19940;-86
2024/04/12 06:30:40;;;;;;;;;;;;;;;11.38;100.00;101549.22;5521771;25;19919;-86
2024/04/12 06:33:06;;;;;;;;;;;;;;;11.36;100.00;101545.84;5503116;26;19956;-85
2024/04/12 06:35:31;;;;;;;;;;;;;;;11.36;100.00;101548.53;5466257;26;20277;-85
2024/04/12 06:37:58;;;;;;;;;;;;;;;11.39;100.00;101544.69;5499943;26;19996;-85
2024/04/12 06:40:28;;;;;;;;;;;;;;;11.42;100.00;101538.97;5468090;26;19934;-84
2024/04/12 06:43:05;;;;;;;;;;;;;;;11.45;100.00;101533.25;5498671;26;19927;-87
2024/04/12 06:45:44;;;;;;;;;;;;;;;11.47;100.00;101527.72;5500381;26;19958;-87
2024/04/12 06:48:10;;;;;;;;;;;;;;;11.39;100.00;101515.91;5501536;26;19935;-87
2024/04/12 06:50:36;;;;;;;;;;;;;;;11.49;100.00;101523.03;5499444;26;19927;-87
2024/04/12 06:53:08;;;;;;;;;;;;;;;11.51;100.00;101515.59;5499303;26;19927;-88
2024/04/12 06:55:45;;;;;;;;;;;;;;;11.54;100.00;101510.75;5472407;26;19935;-87
2024/04/12 06:58:17;;;;;;;;;;;;;;;11.60;100.00;101515.47;5547002;25;19931;-86
2024/04/12 07:00:43;;;;;;;;;;;;;;;11.59;100.00;101497.63;5509167;26;19931;-87
2024/04/12 07:03:15;;;;;;;;;;;;;;;11.62;100.00;101493.78;5467364;26;20386;-86
2024/04/12 07:05:48;;;;;;;;;;;;;;;11.62;100.00;101504.53;5468733;26;20418;-87
2024/04/12 07:08:16;;;;;;;;;;;;;;;11.65;100.00;101507.75;5497967;26;20354;-87
2024/04/12 07:10:48;;;;;;;;;;;;;;;11.66;100.00;101514.81;5497069;26;19938;-86
2024/04/12 07:13:17;;;;;;;;;;;;;;;11.69;100.00;101502.84;5497056;26;19963;-86
2024/04/12 07:15:45;;;;;;;;;;;;;;;11.70;100.00;101515.34;5466116;26;19927;-87
2024/04/12 07:18:11;;;;;;;;;;;;;;;11.73;100.00;101515.00;5497392;26;19927;-87
2024/04/12 07:20:40;;;;;;;;;;;;;;;11.71;100.00;101521.56;5467658;26;19927;-87
2024/04/12 07:23:15;;;;;;;;;;;;;;;11.72;100.00;101528.63;5471223;26;19960;-87
2024/04/12 07:25:52;;;;;;;;;;;;;;;11.72;100.00;101520.53;5497064;26;19934;-88
2024/04/12 07:28:18;;;;;;;;;;;;;;;11.75;100.00;101525.59;5467095;26;19931;-89
2024/04/12 07:30:46;;;;;;;;;;;;;;;11.76;100.00;101525.44;5526799;26;20437;-87
2024/04/12 07:33:12;;;;;;;;;;;;;;;11.77;100.00;101518.19;5526987;26;19934;-87
2024/04/12 07:35:48;;;;;;;;;;;;;;;11.80;100.00;101512.47;5496029;26;19928;-86
2024/04/12 07:38:14;;;;;;;;;;;;;;;11.80;100.00;101521.44;5467293;26;19934;-86
2024/04/12 07:40:42;;;;;;;;;;;;;;;11.85;100.00;101512.81;5527818;26;19927;-87
2024/04/12 07:43:11;;;;;;;;;;;;;;;11.87;100.00;101522.47;5496763;26;19935;-88
2024/04/12 07:45:38;;;;;;;;;;;;;;;11.91;100.00;101532.91;5497107;26;19928;-88
2024/04/12 07:48:22;;;;;;;;;;;;;;;11.96;100.00;101536.81;5496357;26;20389;-87
2024/04/12 07:50:54;;;;;;;;;;;;;;;11.97;100.00;101543.88;5470554;26;19928;-88
2024/04/12 07:53:24;;;;;;;;;;;;;;;12.00;100.00;101532.75;5496593;26;19931;-87
2024/04/12 07:56:08;;;;;;;;;;;;;;;11.98;100.00;101539.31;5496525;26;19994;-87
2024/04/12 07:58:34;;;;;;;;;;;;;;;11.99;100.00;101527.56;5468374;26;19931;-86
2024/04/12 08:01:09;;;;;;;;;;;;;;;12.02;100.00;101538.00;5466690;26;19927;-88
2024/04/12 08:03:39;;;;;;;;;;;;;;;11.97;100.00;101541.19;5467815;26;19939;-87
2024/04/12 08:06:05;;;;;;;;;;;;;;;12.07;100.00;101543.75;5526197;26;19927;-89
2024/04/12 08:08:46;;;;;;;;;;;;;;;12.08;100.00;101551.63;5464903;26;19934;-88
2024/04/12 08:14:06;;;;;;;;;;;;;;;12.06;100.00;101548.25;5499882;26;19935;-87
2024/04/12 08:16:36;;;;;;;;;;;;;;;12.03;100.00;101547.75;5496060;26;19927;-88
2024/04/12 08:19:12;;;;;;;;;;;;;;;12.05;100.00;101545.75;5463740;26;20265;-88
2024/04/12 08:21:38;;;;;;;;;;;;;;;12.13;100.00;101548.47;5496918;26;19934;-87
2024/04/12 08:24:10;;;;;;;;;;;;;;;12.18;100.00;101540.72;5495182;26;19934;-88
2024/04/12 08:26:38;;;;;;;;;;;;;;;12.29;100.00;101543.06;5466713;26;19928;-88
2024/04/12 08:29:06;;;;;;;;;;;;;;;12.35;100.00;101538.84;5495417;26;19927;-87
2024/04/12 08:31:35;;;;;;;;;;;;;;;12.38;100.00;101534.97;5496668;26;20269;-87
2024/04/12 08:34:03;;;;;;;;;;;;;;;12.30;100.00;101528.59;5494919;26;19927;-87
2024/04/12 08:36:33;;;;;;;;;;;;;;;12.31;100.00;101534.81;5496626;26;19934;-88
2024/04/12 08:39:12;;;;;;;;;;;;;;;12.31;100.00;101534.81;5526738;26;19956;-87
2024/04/12 08:41:40;;;;;;;;;;;;;;;12.36;100.00;101532.47;5495943;26;19999;-88
2024/04/12 08:44:09;;;;;;;;;;;;;;;12.48;100.00;101525.69;5495841;26;19972;-88
2024/04/12 08:46:36;;;;;;;;;;;;;;;12.59;100.00;101526.38;5497463;26;19927;-86
2024/04/12 08:49:13;;;;;;;;;;;;;;;12.70;100.00;101528.72;5464648;26;19927;-88
2024/04/12 08:51:40;;;;;;;;;;;;;;;12.79;100.00;101526.88;5499088;26;19927;-86
2024/04/12 08:54:05;;;;;;;;;;;;;;;12.66;100.00;101527.38;5527449;26;20372;-88
2024/04/12 08:56:31;;;;;;;;;;;;;;;12.62;100.00;101536.81;5498867;26;19939;-87
2024/04/12 08:58:59;;;;;;;;;;;;;;;12.54;100.00;101534.97;5507308;26;19949;-87
2024/04/12 09:01:25;;;;;;;;;;;;;;;12.54;100.00;101529.56;5486071;26;19942;-86
2024/04/12 09:03:53;;;;;;;;;;;;;;;12.62;100.00;101528.72;5465444;26;19928;-85
2024/04/12 09:06:23;;;;;;;;;;;;;;;12.57;100.00;101523.88;5464129;26;19928;-85
2024/04/12 09:08:51;;;;;;;;;;;;;;;12.54;100.00;101529.56;5495105;26;19928;-86
2024/04/12 09:11:25;;;;;;;;;;;;;;;12.60;100.00;101523.53;5525639;26;19927;-86
2024/04/12 09:13:53;;;;;;;;;;;;;;;12.60;100.00;101538.88;5498469;26;19955;-85
2024/04/12 09:16:19;;;;;;;;;;;;;;;12.73;100.00;101542.72;5476923;25;19964;-86
2024/04/12 09:18:46;;;;;;;;;;;;;;;12.62;100.00;101537.69;5519529;25;19923;-85
2024/04/12 09:21:23;;;;;;;;;;;;;;;12.47;100.00;101537.50;5543490;25;19928;-85
2024/04/12 09:23:50;;;;;;;;;;;;;;;12.39;100.00;101537.53;5497935;26;19934;-84
2024/04/12 09:26:22;;;;;;;;;;;;;;;12.42;100.00;101530.94;5496214;26;19927;-85
2024/04/12 09:28:56;;;;;;;;;;;;;;;12.32;100.00;101531.94;5496023;26;19995;-86
2024/04/12 09:34:29;;;;;;;;;;;;;;;12.19;100.00;101534.28;5503891;26;19972;-85
2024/04/12 09:37:28;;;;;;;;;;;;;;;12.07;100.00;101541.88;5474535;26;19927;-86
2024/04/12 09:45:22;;;;;;;;;;;;;;;12.08;100.00;101550.81;5509948;26;19927;-85
2024/04/12 10:37:51;;;;;;;;;;;;;;;12.05;100.00;101589.72;5527891;26;19939;-86
2024/04/12 10:40:16;;;;;;;;;;;;;;;12.08;100.00;101593.94;5466575;26;19927;-88
2024/04/12 10:42:45;;;;;;;;;;;;;;;12.06;100.00;101590.56;5495805;26;20269;-86
2024/04/12 10:45:17;;;;;;;;;;;;;;;12.06;100.00;101588.69;5467003;26;20382;-86
2024/04/12 10:47:45;;;;;;;;;;;;;;;12.10;100.00;101587.38;5497604;26;19931;-86
2024/04/12 10:50:13;;;;;;;;;;;;;;;12.22;100.00;101578.97;5466732;26;19928;-87
2024/04/12 10:52:39;;;;;;;;;;;;;;;12.47;100.00;101561.78;5466904;26;19939;-86
2024/04/12 10:55:09;;;;;;;;;;;;;;;13.09;100.00;101555.78;5496894;26;19938;-86
2024/04/12 10:57:40;;;;;;;;;;;;;;;13.68;100.00;101573.50;5497339;26;19934;-87
2024/04/12 11:00:14;;;;;;;;;;;;;;;13.87;100.00;101546.06;5496281;26;19928;-86
2024/04/12 11:02:54;;;;;;;;;;;;;;;13.80;100.00;101553.19;5467440;26;20362;-86
2024/04/12 11:07:47;;;;;;;;;;;;;;;13.49;100.00;101563.97;5527416;26;19935;-85
2024/04/12 11:10:25;;;;;;;;;;;;;;;13.37;100.00;101558.13;5527065;26;19940;-86
2024/04/12 11:12:59;;;;;;;;;;;;;;;13.27;100.00;101552.06;5499520;26;19927;-86
2024/04/12 11:31:53;;;;;;;;;;;;;;;12.12;100.00;101575.56;5500772;26;20373;-86
2024/04/12 11:34:19;;;;;;;;;;;;;;;12.13;100.00;101588.06;5495848;26;19963;-85
2024/04/12 11:36:45;;;;;;;;;;;;;;;12.20;100.00;101583.66;5465575;26;19976;-85
2024/04/12 11:39:25;;;;;;;;;;;;;;;12.35;100.00;101578.47;5495720;26;20366;-86
2024/04/12 11:41:50;;;;;;;;;;;;;;;12.41;100.00;101580.50;5468389;26;19939;-85
2024/04/12 11:44:18;;;;;;;;;;;;;;;12.46;100.00;101568.22;5495708;26;20389;-85
2024/04/12 11:46:48;;;;;;;;;;;;;;;12.49;100.00;101561.59;5495954;26;20050;-84
2024/04/12 11:49:27;;;;;;;;;;;;;;;12.48;100.00;101562.63;5526826;26;19935;-85
2024/04/12 11:51:55;;;;;;;;;;;;;;;12.40;100.00;101549.97;5497995;26;19927;-85
2024/04/12 11:54:29;;;;;;;;;;;;;;;12.40;100.00;101536.50;5494382;26;20259;-86
2024/04/12 11:56:59;;;;;;;;;;;;;;;12.54;100.00;101534.97;5543318;26;19931;-84
2024/04/12 11:59:27;;;;;;;;;;;;;;;12.86;100.00;101534.09;5483019;26;19973;-84
2024/04/12 12:02:00;;;;;;;;;;;;;;;12.98;100.00;101564.28;5497203;26;20347;-86
2024/04/12 12:04:25;;;;;;;;;;;;;;;13.06;100.00;101533.72;5496749;26;19927;-84
2024/04/12 12:06:51;;;;;;;;;;;;;;;13.15;100.00;101528.13;5496803;26;19927;-85
2024/04/12 12:09:20;;;;;;;;;;;;;;;13.20;100.00;101514.94;5465872;26;20262;-84
2024/04/12 12:11:50;;;;;;;;;;;;;;;13.22;100.00;101517.44;5496943;26;20218;-85
2024/04/12 12:14:16;;;;;;;;;;;;;;;13.46;100.00;101524.63;5496937;26;19999;-85
2024/04/12 12:16:41;;;;;;;;;;;;;;;13.56;100.00;101519.88;5496228;26;20039;-84
2024/04/12 12:19:07;;;;;;;;;;;;;;;13.56;100.00;101524.44;5496454;26;19929;-84
2024/04/12 12:21:33;;;;;;;;;;;;;;;13.69;100.00;101531.97;5526698;26;20265;-85
2024/04/12 12:23:59;;;;;;;;;;;;;;;13.79;100.00;101525.31;5526696;26;19928;-85
2024/04/12 12:26:25;;;;;;;;;;;;;;;13.72;100.00;101520.78;5496437;26;19935;-85
2024/04/12 12:28:51;;;;;;;;;;;;;;;13.56;100.00;101517.16;5466491;26;19972;-85
2024/04/12 12:31:18;;;;;;;;;;;;;;;13.51;100.00;101510.59;5499312;26;19928;-85
2024/04/12 12:33:45;;;;;;;;;;;;;;;13.56;100.00;101510.91;5468255;26;19931;-85
2024/04/12 12:36:11;;;;;;;;;;;;;;;13.56;100.00;101511.75;5513973;25;19920;-86
2024/04/12 12:38:40;;;;;;;;;;;;;;;13.49;100.00;101524.28;5539236;25;19928;-85
2024/04/12 12:41:09;;;;;;;;;;;;;;;13.44;100.00;101545.56;5465092;26;19928;-85
2024/04/12 12:43:34;;;;;;;;;;;;;;;13.35;100.00;101541.25;5494773;26;19955;-86
2024/04/12 12:46:00;;;;;;;;;;;;;;;13.37;100.00;101523.00;5495373;26;19928;-88
2024/04/12 12:48:27;;;;;;;;;;;;;;;13.39;100.00;101529.09;5494616;26;20406;-86
2024/04/12 12:50:53;;;;;;;;;;;;;;;13.39;100.00;101539.88;5464680;26;19928;-86
2024/04/12 12:53:22;;;;;;;;;;;;;;;13.36;100.00;101542.91;5525445;26;20322;-86
2024/04/12 12:55:55;;;;;;;;;;;;;;;13.39;100.00;101535.31;5525312;26;19935;-87
2024/04/12 12:58:24;;;;;;;;;;;;;;;13.35;100.00;101547.47;5495038;26;20362;-87
2024/04/12 13:00:50;;;;;;;;;;;;;;;13.27;100.00;101541.28;5494447;26;19995;-86
2024/04/12 13:03:25;;;;;;;;;;;;;;;13.23;100.00;101538.06;5464369;26;19939;-86
2024/04/12 13:05:52;;;;;;;;;;;;;;;13.31;100.00;101526.38;5500070;26;19927;-86
2024/04/12 13:08:17;;;;;;;;;;;;;;;13.31;100.00;101527.25;5468052;26;19927;-86
2024/04/12 13:10:46;;;;;;;;;;;;;;;13.33;100.00;101518.94;5467823;26;19994;-86
2024/04/12 13:13:17;;;;;;;;;;;;;;;13.48;100.00;101513.66;5468174;26;19927;-85
2024/04/12 13:15:52;;;;;;;;;;;;;;;13.71;100.00;101532.63;5469146;26;20266;-86
2024/04/12 13:18:20;;;;;;;;;;;;;;;13.62;100.00;101535.34;5469380;26;19995;-86
2024/04/12 13:20:46;;;;;;;;;;;;;;;13.55;100.00;101544.38;5497862;26;19935;-86
2024/04/12 13:23:14;;;;;;;;;;;;;;;13.59;100.00;101530.31;5498046;26;19927;-87
2024/04/12 13:25:40;;;;;;;;;;;;;;;13.52;100.00;101539.28;5468535;26;19928;-86
2024/04/12 13:28:11;;;;;;;;;;;;;;;13.47;100.00;101536.28;5528633;26;19995;-85
2024/04/12 13:30:43;;;;;;;;;;;;;;;13.86;100.00;101525.44;5469200;26;19928;-84
2024/04/12 13:33:08;;;;;;;;;;;;;;;14.55;100.00;101525.44;5468203;26;20392;-85
2024/04/12 13:35:40;;;;;;;;;;;;;;;14.67;100.00;101528.56;5498028;26;19927;-85
2024/04/12 13:38:12;;;;;;;;;;;;;;;14.81;100.00;101552.09;5498756;26;19931;-85
2024/04/12 13:40:42;;;;;;;;;;;;;;;14.78;100.00;101549.75;5467793;26;19927;-85
2024/04/12 13:43:14;;;;;;;;;;;;;;;14.32;100.00;101527.31;5502615;26;19934;-86
2024/04/12 13:51:12;;;;;;;;;;;;;;;13.79;100.00;101551.50;5529435;26;19952;-85
2024/04/12 13:53:37;;;;;;;;;;;;;;;13.62;100.00;101567.78;5497589;26;20262;-85
2024/04/12 13:58:49;;;;;;;;;;;;;;;13.53;100.00;101571.56;5502081;26;19927;-85
2024/04/12 14:01:24;;;;;;;;;;;;;;;13.46;100.00;101589.47;5497489;26;19927;-84
2024/04/12 14:03:49;;;;;;;;;;;;;;;13.43;100.00;101583.59;5499040;26;20254;-85
2024/04/12 14:06:18;;;;;;;;;;;;;;;13.36;100.00;101589.69;5527934;26;19935;-85
2024/04/12 14:08:45;;;;;;;;;;;;;;;13.32;100.00;101588.34;5467393;26;19934;-85